Milk And Honey — WDF9265 — position and weather

sailwx.info

Track history (hours):
 
Tides and Currents Weather Stations Pressure Air Temp Water Temp Dewpoint Dewpoint Depression Visibility Wind Speed Wind Dir Waves Ship Positions

Milk And Honey

Owner: EKS Chartering Inc, Parsippany, NJ. More information available from US FCC via Universal Licensing System and Coast Guard Vessel Documentation Center.

Last reported at 2015-Jan-27 13:34 UTC. Time now 2015-Jan-27 14:30 UTC.
Position N 18°26' W 064°45'.

Length 40 m.

Type: Pleasure craft. MMSI: 367503380.

Date/timePositionNaut miles runAvg speedWind from/ knotsBaromVisibWave heightAir tempDewpointWater temp
2015-Jan-27 13:34N 18°26' W 064°45'0 0.0
2015-Jan-27 12:34N 18°26' W 064°45'0 0.0
2015-Jan-27 11:34N 18°26' W 064°45'0 0.0
2015-Jan-27 10:34N 18°26' W 064°45'0 0.0
2015-Jan-27 09:33N 18°26' W 064°45'0 0.0
2015-Jan-27 08:32N 18°26' W 064°45'0 0.0
2015-Jan-27 07:33N 18°26' W 064°45'0 0.0
2015-Jan-27 06:33N 18°26' W 064°45'0 0.0
2015-Jan-27 05:33N 18°26' W 064°45'0 0.0
2015-Jan-27 04:33N 18°26' W 064°45'0 0.0
2015-Jan-27 03:34N 18°26' W 064°45'0 0.0
2015-Jan-27 02:33N 18°26' W 064°45'0 0.0
2015-Jan-27 01:33N 18°26' W 064°45'0 0.0
2015-Jan-27 00:32N 18°26' W 064°45'0 0.0
2015-Jan-26 23:33N 18°26' W 064°45'0 0.0
2015-Jan-26 22:33N 18°26' W 064°45'0 0.0
2015-Jan-26 21:33N 18°26' W 064°45'0 0.0
2015-Jan-26 20:33N 18°26' W 064°45'0 0.0
2015-Jan-26 19:33N 18°26' W 064°45'0 0.0
2015-Jan-26 18:33N 18°26' W 064°45'0 0.0
2015-Jan-26 17:33N 18°26' W 064°45'0 0.0
2015-Jan-26 16:33N 18°26' W 064°45'0 0.0
2015-Jan-26 16:15N 18°26' W 064°45'0 0.0
2015-Jan-26 15:33N 18°26' W 064°45'4 4.4
2015-Jan-26 14:33N 18°22' W 064°45'0 0.0
2015-Jan-26 13:33N 18°22' W 064°45'0 0.0
2015-Jan-26 12:33N 18°22' W 064°45'0 0.0
2015-Jan-26 11:33N 18°22' W 064°45'0 0.0
2015-Jan-26 10:33N 18°22' W 064°45'0 0.0
2015-Jan-26 09:33N 18°22' W 064°45'0 0.0
2015-Jan-26 08:33N 18°22' W 064°45'0 0.0
2015-Jan-26 07:33N 18°22' W 064°45'0 0.0
2015-Jan-26 06:33N 18°22' W 064°45'0 0.0
2015-Jan-26 05:33N 18°22' W 064°45'0 0.0
2015-Jan-26 04:33N 18°22' W 064°45'0 0.0
2015-Jan-26 03:33N 18°22' W 064°45'0 0.0
2015-Jan-26 02:33N 18°22' W 064°45'0 0.0
2015-Jan-26 01:33N 18°22' W 064°45'0 0.0
2015-Jan-26 00:33N 18°22' W 064°45'0 0.0
2015-Jan-25 23:33N 18°22' W 064°45'0 0.0
2015-Jan-25 22:33N 18°22' W 064°45'0 0.0
2015-Jan-25 21:33N 18°22' W 064°45'0 0.0
2015-Jan-25 20:33N 18°22' W 064°45'0 0.0
2015-Jan-25 19:33N 18°22' W 064°45'0 0.0
2015-Jan-25 18:33N 18°22' W 064°45'0 0.0
2015-Jan-25 17:33N 18°22' W 064°45'1 3.9
2015-Jan-25 17:23N 18°22' W 064°46'1 0.7
2015-Jan-25 16:33N 18°22' W 064°45'8 0.3
2015-Jan-24 16:13N 18°17' W 064°52'711.0
2015-Jan-24 15:34N 18°18' W 064°44'7 0.4
2015-Jan-23 21:28N 18°20' W 064°37'1 0.1
2015-Jan-22 22:29N 18°21' W 064°37'6 1.0
2015-Jan-22 16:33N 18°23' W 064°31'0 0.1
2015-Jan-22 15:33N 18°23' W 064°31'0 0.0
2015-Jan-22 10:29N 18°23' W 064°31'0 0.0
2015-Jan-22 09:14N 18°23' W 064°31'0 0.0
2015-Jan-22 06:22N 18°23' W 064°31'0 0.0
2015-Jan-22 05:18N 18°23' W 064°31'0 0.0
2015-Jan-22 04:25N 18°23' W 064°31'0 0.0
2015-Jan-22 00:19N 18°23' W 064°31'0 0.0
2015-Jan-21 23:33N 18°23' W 064°31'0 0.0
2015-Jan-21 22:50N 18°23' W 064°31'0 0.1
2015-Jan-21 22:46N 18°23' W 064°31'0 0.0
2015-Jan-21 22:33N 18°23' W 064°31'0 0.0
2015-Jan-21 21:33N 18°23' W 064°31'5 4.9
2015-Jan-21 20:33N 18°26' W 064°27'0 0.0
2015-Jan-21 19:27N 18°26' W 064°27'  
2015-Jan-18 17:31N 18°25' W 064°35'  
Track history (hours):
 
Tides and Currents Weather Stations Pressure Air Temp Water Temp Dewpoint Dewpoint Depression Visibility Wind Speed Wind Dir Waves Ship Positions

Milk And Honey

Owner: EKS Chartering Inc, Parsippany, NJ. More information available from US FCC via Universal Licensing System and Coast Guard Vessel Documentation Center.

Last reported at 2015-Jan-27 13:34 UTC. Time now 2015-Jan-27 14:30 UTC.
Position N 18°26' W 064°45'.

Length 40 m.

Type: Pleasure craft. MMSI: 367503380.

Date/timePositionNaut miles runAvg speedWind from/ knotsBaromVisibWave heightAir tempDewpointWater temp
2015-Jan-27 13:34N 18°26' W 064°45'0 0.0
2015-Jan-27 12:34N 18°26' W 064°45'0 0.0
2015-Jan-27 11:34N 18°26' W 064°45'0 0.0
2015-Jan-27 10:34N 18°26' W 064°45'0 0.0
2015-Jan-27 09:33N 18°26' W 064°45'0 0.0
2015-Jan-27 08:32N 18°26' W 064°45'0 0.0
2015-Jan-27 07:33N 18°26' W 064°45'0 0.0
2015-Jan-27 06:33N 18°26' W 064°45'0 0.0
2015-Jan-27 05:33N 18°26' W 064°45'0 0.0
2015-Jan-27 04:33N 18°26' W 064°45'0 0.0
2015-Jan-27 03:34N 18°26' W 064°45'0 0.0
2015-Jan-27 02:33N 18°26' W 064°45'0 0.0
2015-Jan-27 01:33N 18°26' W 064°45'0 0.0
2015-Jan-27 00:32N 18°26' W 064°45'0 0.0
2015-Jan-26 23:33N 18°26' W 064°45'0 0.0
2015-Jan-26 22:33N 18°26' W 064°45'0 0.0
2015-Jan-26 21:33N 18°26' W 064°45'0 0.0
2015-Jan-26 20:33N 18°26' W 064°45'0 0.0
2015-Jan-26 19:33N 18°26' W 064°45'0 0.0
2015-Jan-26 18:33N 18°26' W 064°45'0 0.0
2015-Jan-26 17:33N 18°26' W 064°45'0 0.0
2015-Jan-26 16:33N 18°26' W 064°45'0 0.0
2015-Jan-26 16:15N 18°26' W 064°45'0 0.0
2015-Jan-26 15:33N 18°26' W 064°45'4 4.4
2015-Jan-26 14:33N 18°22' W 064°45'0 0.0
2015-Jan-26 13:33N 18°22' W 064°45'0 0.0
2015-Jan-26 12:33N 18°22' W 064°45'0 0.0
2015-Jan-26 11:33N 18°22' W 064°45'0 0.0
2015-Jan-26 10:33N 18°22' W 064°45'0 0.0
2015-Jan-26 09:33N 18°22' W 064°45'0 0.0
2015-Jan-26 08:33N 18°22' W 064°45'0 0.0
2015-Jan-26 07:33N 18°22' W 064°45'0 0.0
2015-Jan-26 06:33N 18°22' W 064°45'0 0.0
2015-Jan-26 05:33N 18°22' W 064°45'0 0.0
2015-Jan-26 04:33N 18°22' W 064°45'0 0.0
2015-Jan-26 03:33N 18°22' W 064°45'0 0.0
2015-Jan-26 02:33N 18°22' W 064°45'0 0.0
2015-Jan-26 01:33N 18°22' W 064°45'0 0.0
2015-Jan-26 00:33N 18°22' W 064°45'0 0.0
2015-Jan-25 23:33N 18°22' W 064°45'0 0.0
2015-Jan-25 22:33N 18°22' W 064°45'0 0.0
2015-Jan-25 21:33N 18°22' W 064°45'0 0.0
2015-Jan-25 20:33N 18°22' W 064°45'0 0.0
2015-Jan-25 19:33N 18°22' W 064°45'0 0.0
2015-Jan-25 18:33N 18°22' W 064°45'0 0.0
2015-Jan-25 17:33N 18°22' W 064°45'1 3.9
2015-Jan-25 17:23N 18°22' W 064°46'1 0.7
2015-Jan-25 16:33N 18°22' W 064°45'8 0.3
2015-Jan-24 16:13N 18°17' W 064°52'711.0
2015-Jan-24 15:34N 18°18' W 064°44'7 0.4
2015-Jan-23 21:28N 18°20' W 064°37'1 0.1
2015-Jan-22 22:29N 18°21' W 064°37'6 1.0
2015-Jan-22 16:33N 18°23' W 064°31'0 0.1
2015-Jan-22 15:33N 18°23' W 064°31'0 0.0
2015-Jan-22 10:29N 18°23' W 064°31'0 0.0
2015-Jan-22 09:14N 18°23' W 064°31'0 0.0
2015-Jan-22 06:22N 18°23' W 064°31'0 0.0
2015-Jan-22 05:18N 18°23' W 064°31'0 0.0
2015-Jan-22 04:25N 18°23' W 064°31'0 0.0
2015-Jan-22 00:19N 18°23' W 064°31'0 0.0
2015-Jan-21 23:33N 18°23' W 064°31'0 0.0
2015-Jan-21 22:50N 18°23' W 064°31'0 0.1
2015-Jan-21 22:46N 18°23' W 064°31'0 0.0
2015-Jan-21 22:33N 18°23' W 064°31'0 0.0
2015-Jan-21 21:33N 18°23' W 064°31'5 4.9
2015-Jan-21 20:33N 18°26' W 064°27'0 0.0
2015-Jan-21 19:27N 18°26' W 064°27'  
2015-Jan-18 17:31N 18°25' W 064°35'  

Dump ship's entire track history